Time;durP1;ratioP1;P1;durP2;ratioP2;P2;SDS_P1;SDS_P2;PMS_P1;PMS_P2;Temp;Humidity;BMP_temperature;BMP_pressure;BME280_temperature;BME280_humidity;BME280_pressure;Samples;Min_cycle;Max_cycle;Signal;HPM_P1;HPM_P2
2022/08/10 04:22:34;;;;;;;4.50;2.50;;;;;;;18.67;51.94;100887.63;5089107;28;20393;-65
2022/08/10 04:25:03;;;;;;;3.65;2.65;;;;;;;18.66;51.72;100884.09;5089021;28;20127;-65
2022/08/10 04:27:29;;;;;;;2.83;2.00;;;;;;;18.64;51.84;100886.13;5088983;28;20075;-65
2022/08/10 04:29:56;;;;;;;2.58;2.20;;;;;;;18.60;51.81;100884.09;5088646;28;20075;-65
2022/08/10 04:32:23;;;;;;;2.20;1.97;;;;;;;18.60;52.20;100884.09;5089457;28;20115;-65
2022/08/10 04:34:51;;;;;;;5.22;2.83;;;;;;;18.61;52.35;100889.28;5088914;28;20050;-65
2022/08/10 04:37:19;;;;;;;4.68;3.15;;;;;;;18.65;52.48;100900.47;5088924;28;20447;-65
2022/08/10 04:39:45;;;;;;;3.53;2.30;;;;;;;18.63;52.32;100894.44;5088511;28;20036;-65
2022/08/10 04:42:11;;;;;;;2.78;2.40;;;;;;;18.60;52.23;100890.31;5088662;28;20094;-65
2022/08/10 04:44:37;;;;;;;3.90;2.05;;;;;;;18.62;52.30;100895.50;5070546;28;20063;-65
2022/08/10 04:47:03;;;;;;;2.80;2.10;;;;;;;18.61;52.15;100897.38;5088645;28;20097;-65
2022/08/10 04:49:28;;;;;;;3.03;2.00;;;;;;;18.66;52.21;100896.75;5088276;28;20040;-65
2022/08/10 04:51:54;;;;;;;1.98;1.80;;;;;;;18.64;52.26;100896.94;5088699;28;20401;-65
2022/08/10 04:54:19;;;;;;;2.40;1.83;;;;;;;18.70;52.15;100896.13;5088537;28;20036;-65
2022/08/10 04:56:44;;;;;;;5.00;2.47;;;;;;;18.72;52.42;100903.19;5088409;28;20075;-65
2022/08/10 04:59:10;;;;;;;4.32;2.00;;;;;;;18.72;52.09;100893.22;5088134;28;20082;-64
2022/08/10 05:01:38;;;;;;;5.35;2.28;;;;;;;18.73;52.22;100907.56;5088484;28;20032;-64
2022/08/10 05:04:04;;;;;;;3.70;2.05;;;;;;;18.75;52.05;100898.19;5088495;28;20036;-65
2022/08/10 05:06:29;;;;;;;3.47;2.13;;;;;;;18.78;51.75;100896.94;5088063;28;20132;-65
2022/08/10 05:08:54;;;;;;;2.67;2.10;;;;;;;18.81;52.29;100900.03;5088105;28;20044;-65
2022/08/10 05:11:20;;;;;;;3.80;2.00;;;;;;;18.81;51.87;100896.53;5088030;28;20040;-66
2022/08/10 05:13:45;;;;;;;2.95;2.08;;;;;;;18.83;52.02;100891.72;5088165;28;20092;-65
2022/08/10 05:16:11;;;;;;;4.25;1.92;;;;;;;18.85;51.85;100897.78;5088063;28;20032;-65
2022/08/10 05:18:36;;;;;;;4.20;1.80;;;;;;;18.86;52.24;100896.72;5088198;28;20420;-65
2022/08/10 05:21:02;;;;;;;3.58;2.30;;;;;;;18.90;52.24;100895.25;5087657;28;20104;-45
2022/08/10 05:23:27;;;;;;;3.20;2.17;;;;;;;18.94;52.07;100894.63;5087954;28;20098;-45
2022/08/10 05:25:53;;;;;;;3.33;2.03;;;;;;;19.00;52.12;100906.44;5087738;28;20040;-46
2022/08/10 05:28:18;;;;;;;4.05;2.42;;;;;;;19.01;52.25;100899.16;5087833;28;20050;-48
2022/08/10 05:30:44;;;;;;;3.58;2.30;;;;;;;19.05;52.20;100903.94;5087630;28;20050;-47
2022/08/10 05:33:09;;;;;;;3.20;1.77;;;;;;;19.11;52.13;100907.66;5078439;28;20040;-46
2022/08/10 05:35:37;;;;;;;4.90;1.90;;;;;;;19.14;51.84;100909.91;5074149;28;20405;-49
2022/08/10 05:38:03;;;;;;;;;;;;;;;19.14;51.79;100910.75;5074754;28;20401;-44
2022/08/10 05:40:29;;;;;;;3.45;2.00;;;;;;;19.20;52.37;100907.19;5073874;28;19923;-46
2022/08/10 05:42:55;;;;;;;4.05;1.90;;;;;;;19.20;51.94;100907.19;5074175;28;20048;-44
2022/08/10 05:45:24;;;;;;;2.47;2.08;;;;;;;19.21;51.56;100908.03;5074114;28;20032;-49
2022/08/10 05:47:49;;;;;;;4.82;2.40;;;;;;;19.25;51.45;100918.19;5074191;28;20036;-44
2022/08/10 05:50:17;;;;;;;4.57;1.95;;;;;;;19.29;51.07;100921.28;5073733;28;20039;-47
2022/08/10 05:52:43;;;;;;;3.47;2.08;;;;;;;19.33;51.49;100921.69;5073977;28;20037;-46
2022/08/10 05:55:10;;;;;;;3.55;2.00;;;;;;;19.34;51.41;100923.34;5074003;28;20107;-42
2022/08/10 05:57:36;;;;;;;3.25;1.73;;;;;;;19.44;51.14;100929.13;5073860;28;20374;-43
2022/08/10 06:00:06;;;;;;;2.88;2.10;;;;;;;19.49;51.14;100922.00;5073580;28;20114;-47
2022/08/10 06:02:43;;;;;;;2.67;1.98;;;;;;;19.52;51.56;100928.88;5073812;28;20117;-45
2022/08/10 06:05:19;;;;;;;4.60;2.05;;;;;;;19.58;50.91;100930.75;5073665;28;20462;-46
2022/08/10 06:08:03;;;;;;;4.05;2.20;;;;;;;19.59;50.65;100918.06;5073793;28;20119;-43
2022/08/10 06:10:30;;;;;;;3.20;2.00;;;;;;;19.62;50.45;100925.72;5073380;28;20036;-42
2022/08/10 06:15:45;;;;;;;3.38;1.98;;;;;;;19.72;50.71;100926.09;5070512;28;20151;-49
2022/08/10 06:18:13;;;;;;;3.28;2.08;;;;;;;19.73;50.24;100925.03;5070821;28;20041;-45
2022/08/10 06:20:40;;;;;;;5.75;1.90;;;;;;;19.78;50.20;100931.47;5073007;28;20063;-48
2022/08/10 06:23:06;;;;;;;2.90;2.00;;;;;;;19.88;50.71;100930.97;5073372;28;20048;-45
2022/08/10 06:25:32;;;;;;;2.05;1.75;;;;;;;19.91;50.20;100925.13;5073348;28;20039;-45
2022/08/10 06:27:59;;;;;;;2.38;1.70;;;;;;;19.91;49.72;100919.72;5073316;28;20107;-50
2022/08/10 06:30:27;;;;;;;2.45;1.83;;;;;;;19.99;50.27;100926.75;5072928;28;20040;-45
2022/08/10 06:32:55;;;;;;;4.25;2.10;;;;;;;20.04;49.86;100929.63;5073046;28;20040;-45
2022/08/10 06:35:29;;;;;;;2.60;1.73;;;;;;;20.12;49.62;100923.94;5073131;28;20451;-44
2022/08/10 06:38:00;;;;;;;5.45;2.20;;;;;;;20.19;49.61;100921.19;5073183;28;20519;-44
2022/08/10 06:40:31;;;;;;;4.10;2.13;;;;;;;20.27;49.63;100923.63;5072606;28;20032;-45
2022/08/10 06:42:59;;;;;;;4.13;1.90;;;;;;;20.33;49.47;100920.84;5073084;28;20130;-45
2022/08/10 06:45:38;;;;;;;33.15;4.20;;;;;;;20.41;49.74;100930.59;5071778;28;20505;-48
2022/08/10 06:48:19;;;;;;;3.20;1.90;;;;;;;20.49;49.69;100926.81;5072948;28;20067;-44
2022/08/10 06:50:49;;;;;;;2.28;1.73;;;;;;;20.68;49.06;100920.38;5072523;28;20119;-42
2022/08/10 06:53:17;;;;;;;2.47;1.73;;;;;;;20.74;48.86;100907.84;5072810;28;20051;-44
2022/08/10 06:55:48;;;;;;;3.25;2.00;;;;;;;20.81;48.76;100916.72;5072599;28;20029;-44
2022/08/10 06:58:14;;;;;;;3.63;1.95;;;;;;;20.98;47.90;100916.94;5072690;28;20119;-43
2022/08/10 07:00:42;;;;;;;4.15;2.05;;;;;;;21.03;47.91;100914.38;5072317;28;20381;-45
2022/08/10 07:03:10;;;;;;;4.43;1.80;;;;;;;21.12;48.18;100921.97;5072637;28;20135;-49
2022/08/10 07:05:43;;;;;;;2.25;1.70;;;;;;;21.29;47.23;100924.09;5072507;28;20036;-42
2022/08/10 07:08:09;;;;;;;3.92;1.85;;;;;;;21.35;47.03;100921.31;5072472;28;20036;-43
2022/08/10 07:10:35;;;;;;;2.80;2.10;;;;;;;21.44;46.76;100923.69;5072094;28;20047;-45
2022/08/10 07:13:01;;;;;;;2.65;1.70;;;;;;;21.58;46.35;100922.47;5072375;28;20036;-45
2022/08/10 07:15:29;;;;;;;2.40;1.65;;;;;;;21.71;46.42;100919.56;5072448;28;20044;-46
2022/08/10 07:17:55;;;;;;;1.60;1.50;;;;;;;21.80;45.61;100923.63;5072299;28;20048;-42
2022/08/10 07:20:22;;;;;;;1.95;1.70;;;;;;;21.92;45.47;100921.78;5071819;28;20442;-47
2022/08/10 07:22:50;;;;;;;3.25;2.20;;;;;;;22.01;45.55;100910.59;5072290;28;20045;-42
2022/08/10 07:25:20;;;;;;;2.67;1.85;;;;;;;22.18;45.44;100917.84;5072198;28;20401;-42
2022/08/10 07:27:46;;;;;;;1.83;1.70;;;;;;;22.25;44.22;100909.59;5072106;28;20477;-42
2022/08/10 07:30:12;;;;;;;5.65;1.95;;;;;;;22.32;44.68;100907.59;5071796;28;20045;-42
2022/08/10 07:32:40;;;;;;;5.32;1.92;;;;;;;22.44;44.34;100910.34;5072148;28;20039;-47
2022/08/10 07:35:10;;;;;;;2.78;1.60;;;;;;;22.46;44.40;100911.72;5072008;28;20397;-47
2022/08/10 07:37:37;;;;;;;4.43;1.80;;;;;;;22.55;44.55;100908.66;5071865;28;20036;-47
2022/08/10 07:40:04;;;;;;;2.65;1.75;;;;;;;22.68;44.21;100903.00;5071829;28;20381;-44
2022/08/10 07:42:32;;;;;;;3.08;1.80;;;;;;;22.78;43.80;100903.22;5071825;28;20037;-44
2022/08/10 07:44:57;;;;;;;3.42;1.77;;;;;;;22.84;43.34;100899.56;5071805;28;20041;-42
2022/08/10 07:47:31;;;;;;;2.78;1.90;;;;;;;22.91;43.08;100905.72;5071842;28;20098;-45
2022/08/10 07:50:02;;;;;;;5.38;2.15;;;;;;;22.98;43.20;100911.84;5071447;28;20047;-45
2022/08/10 07:52:29;;;;;;;4.18;1.98;;;;;;;23.05;42.51;100900.03;5071808;28;20024;-48
2022/08/10 07:54:56;;;;;;;3.10;1.73;;;;;;;23.13;42.60;100914.06;5071548;28;20032;-45
2022/08/10 07:57:26;;;;;;;4.20;1.77;;;;;;;23.25;42.62;100908.59;5071580;28;20040;-46
2022/08/10 07:59:59;;;;;;;3.10;1.63;;;;;;;23.34;42.55;100917.19;5071410;28;20040;-45
2022/08/10 08:02:35;;;;;;;2.30;1.60;;;;;;;23.44;41.76;100904.63;5071452;28;20044;-45
2022/08/10 08:05:04;;;;;;;2.60;1.40;;;;;;;23.56;41.35;100913.56;5071646;28;20107;-45
2022/08/10 08:07:31;;;;;;;1.83;1.50;;;;;;;23.77;41.28;100909.34;5071305;28;20036;-48
2022/08/10 08:09:57;;;;;;;2.40;1.50;;;;;;;23.83;40.11;100910.28;5069828;28;20043;-46
2022/08/10 08:12:24;;;;;;;2.50;1.60;;;;;;;23.98;40.62;100902.38;5071505;28;20415;-46
2022/08/10 08:14:51;;;;;;;3.33;1.38;;;;;;;24.06;39.67;100903.84;5071457;28;20098;-47
2022/08/10 08:17:17;;;;;;;2.00;1.73;;;;;;;24.16;40.51;100905.94;5071443;28;20045;-51
2022/08/10 08:19:48;;;;;;;3.10;2.17;;;;;;;24.24;40.17;100906.34;5071110;28;20028;-45
2022/08/10 08:22:16;;;;;;;4.10;1.60;;;;;;;24.28;40.10;100907.50;5071355;28;20083;-47
2022/08/10 08:24:43;;;;;;;2.95;1.65;;;;;;;24.36;40.20;100909.84;5071478;28;20031;-45
2022/08/10 08:27:11;;;;;;;5.97;1.67;;;;;;;24.49;39.89;100910.56;5071217;28;20127;-43
2022/08/10 08:29:40;;;;;;;2.45;1.50;;;;;;;24.74;40.30;100908.22;5070885;28;20036;-45
2022/08/10 08:32:07;;;;;;;4.85;1.77;;;;;;;24.81;39.08;100908.88;5071249;28;20127;-45
2022/08/10 08:34:36;;;;;;;2.43;1.63;;;;;;;24.88;38.55;100911.41;5071328;28;20094;-46
2022/08/10 08:37:04;;;;;;;3.50;1.52;;;;;;;24.99;38.46;100910.47;5071281;28;20123;-45
2022/08/10 08:39:31;;;;;;;4.15;1.80;;;;;;;25.06;38.59;100908.41;5070982;28;20070;-45
2022/08/10 08:42:25;;;;;;;2.60;1.70;;;;;;;25.14;38.70;100905.22;5071160;28;20036;-45
2022/08/10 08:45:09;;;;;;;2.85;1.45;;;;;;;25.35;37.37;100895.38;5071251;28;20119;-48
2022/08/10 08:48:12;;;;;;;3.25;1.42;;;;;;;25.57;36.95;100906.28;5071108;28;20043;-48
2022/08/10 08:51:03;;;;;;;3.03;1.05;;;;;;;25.77;35.67;100904.88;5070922;28;20044;-46
2022/08/10 08:53:56;;;;;;;3.67;1.52;;;;;;;25.87;35.49;100902.22;5060401;28;20044;-48
2022/08/10 08:56:43;;;;;;;2.50;1.50;;;;;;;25.96;36.39;100900.69;5071075;28;20033;-46
2022/08/10 08:59:23;;;;;;;3.40;1.40;;;;;;;26.12;34.69;100905.19;5070769;28;20481;-45
2022/08/10 09:02:14;;;;;;;1.40;1.20;;;;;;;26.26;34.36;100891.91;5070937;28;20501;-48
2022/08/10 09:04:56;;;;;;;3.67;1.40;;;;;;;26.40;33.88;100898.59;5071123;28;20046;-46
2022/08/10 09:07:49;;;;;;;3.63;1.23;;;;;;;26.50;34.19;100890.47;5071455;28;20052;-49
2022/08/10 09:10:41;;;;;;;3.50;1.45;;;;;;;26.65;33.04;100895.19;5074496;28;20044;-45
2022/08/10 09:13:25;;;;;;;1.90;1.40;;;;;;;26.81;32.74;100884.38;5074603;28;20516;-46
2022/08/10 09:16:07;;;;;;;2.67;1.33;;;;;;;26.87;32.88;100883.31;5074727;28;20584;-49
2022/08/10 09:18:41;;;;;;;1.75;1.45;;;;;;;27.04;32.59;100881.19;5074652;28;20045;-46
2022/08/10 09:21:29;;;;;;;2.65;1.27;;;;;;;27.25;31.54;100880.19;5074134;28;20064;-45
2022/08/10 09:24:26;;;;;;;3.15;1.15;;;;;;;27.42;31.64;100881.88;5074531;28;20029;-43
2022/08/10 09:26:52;;;;;;;1.83;1.50;;;;;;;27.55;31.03;100886.84;5074051;28;20060;-48
2022/08/10 09:29:25;;;;;;;2.33;1.27;;;;;;;27.69;30.83;100887.97;5074170;28;20036;-48
2022/08/10 09:32:08;;;;;;;1.50;1.30;;;;;;;27.78;30.51;100880.91;5074635;28;20088;-50
2022/08/10 09:34:51;;;;;;;1.98;1.48;;;;;;;27.99;30.39;100878.16;5074332;28;20032;-47
2022/08/10 09:37:28;;;;;;;1.83;1.40;;;;;;;28.17;29.85;100869.41;5074439;28;20042;-46
2022/08/10 09:40:02;;;;;;;2.90;1.60;;;;;;;28.55;30.01;100875.38;5073957;28;20431;-46
2022/08/10 09:42:43;;;;;;;2.88;1.30;;;;;;;28.74;29.21;100878.34;5074017;28;20028;-47
2022/08/10 09:45:15;;;;;;;3.67;1.23;;;;;;;28.82;29.13;100862.16;5074086;28;20124;-44
2022/08/10 09:47:55;;;;;;;2.65;1.38;;;;;;;29.01;28.93;100856.88;5074087;28;20493;-44
2022/08/10 09:50:30;;;;;;;3.55;1.42;;;;;;;29.13;28.64;100870.25;5073773;28;20052;-50
2022/08/10 09:53:40;;;;;;;2.78;1.10;;;;;;;29.29;28.04;100860.88;5073902;28;20032;-53
2022/08/10 09:56:19;;;;;;;1.80;1.20;;;;;;;29.50;27.97;100856.06;5073928;28;20071;-51
2022/08/10 09:59:36;;;;;;;2.03;1.38;;;;;;;29.73;26.79;100857.28;5073798;28;20036;-54
2022/08/10 10:02:11;;;;;;;1.60;1.27;;;;;;;30.13;26.55;100863.59;5051464;28;20059;-54
2022/08/10 10:04:49;;;;;;;3.85;1.20;;;;;;;30.18;26.33;100847.84;5073016;28;20434;-52
2022/08/10 10:07:26;;;;;;;2.00;1.30;;;;;;;30.52;26.06;100858.78;5073578;28;20056;-53
2022/08/10 10:10:18;;;;;;;4.78;1.40;;;;;;;31.02;25.11;100867.56;5073241;28;20489;-50
2022/08/10 10:13:06;;;;;;;3.65;1.48;;;;;;;31.27;24.95;100860.13;5073585;28;20045;-55
2022/08/10 10:15:49;;;;;;;4.40;1.70;;;;;;;31.49;25.29;100843.00;5073489;28;20097;-54
2022/08/10 10:18:37;;;;;;;2.08;1.40;;;;;;;31.54;24.75;100840.97;5073601;28;20035;-52
2022/08/10 10:21:14;;;;;;;4.05;1.42;;;;;;;31.87;24.15;100841.84;5073396;28;20032;-53
2022/08/10 10:24:12;;;;;;;4.60;1.35;;;;;;;32.10;23.83;100848.34;5072569;28;20082;-55
2022/08/10 10:26:43;;;;;;;2.35;1.52;;;;;;;31.88;23.31;100835.22;5073706;28;20043;-55
2022/08/10 10:29:28;;;;;;;3.65;1.20;;;;;;;32.09;23.02;100834.88;5073152;28;20032;-53
2022/08/10 10:32:02;;;;;;;2.80;1.20;;;;;;;32.71;22.84;100835.34;5072135;28;20503;-54
2022/08/10 10:34:46;;;;;;;1.75;1.42;;;;;;;32.60;22.22;100829.25;5073358;28;20481;-52
2022/08/10 10:37:12;;;;;;;2.53;1.20;;;;;;;33.08;21.87;100822.47;5073160;28;20044;-51
2022/08/10 10:39:41;;;;;;;3.97;1.33;;;;;;;33.10;21.96;100822.97;5072027;28;20033;-51
2022/08/10 10:42:18;;;;;;;3.00;1.20;;;;;;;32.67;22.23;100824.13;5072903;28;20052;-48
2022/08/10 10:44:51;;;;;;;3.00;1.48;;;;;;;33.28;21.03;100815.66;5072990;28;20032;-49
2022/08/10 10:47:47;;;;;;;1.75;1.30;;;;;;;33.19;20.99;100823.84;5072803;28;20520;-57
2022/08/10 10:50:27;;;;;;;2.88;1.20;;;;;;;33.27;20.76;100808.53;5072817;28;20561;-52
2022/08/10 10:53:11;;;;;;;2.45;1.30;;;;;;;33.37;20.95;100820.13;5072911;28;20093;-61
2022/08/10 10:55:44;;;;;;;3.13;1.38;;;;;;;33.29;20.92;100809.00;5072702;28;20033;-62
2022/08/10 10:58:21;;;;;;;5.53;1.95;;;;;;;33.45;21.44;100802.00;5072741;28;20037;-60
2022/08/10 11:01:09;;;;;;;1.58;1.27;;;;;;;33.19;20.61;100791.56;5072526;28;20024;-60
2022/08/10 11:04:11;;;;;;;5.63;1.35;;;;;;;33.65;20.29;100818.09;5072562;28;20493;-61
2022/08/10 11:06:46;;;;;;;2.47;1.30;;;;;;;33.30;20.47;100799.59;5072429;28;20066;-58
2022/08/10 11:09:27;;;;;;;1.95;1.00;;;;;;;33.55;20.04;100796.25;5072037;28;20417;-58
2022/08/10 11:11:57;;;;;;;3.08;1.40;;;;;;;34.12;19.61;100804.75;5072367;28;20340;-62
2022/08/10 11:14:25;;;;;;;3.75;1.20;;;;;;;33.92;19.37;100799.78;5072395;28;20072;-61
2022/08/10 11:17:00;;;;;;;3.30;1.30;;;;;;;34.08;19.28;100800.19;5072170;28;20020;-61
2022/08/10 11:19:34;;;;;;;4.18;1.10;;;;;;;34.65;18.78;100797.50;5072053;28;20046;-62
2022/08/10 11:22:17;;;;;;;5.35;1.42;;;;;;;34.51;18.44;100803.97;5071996;28;20028;-60
2022/08/10 11:24:55;;;;;;;3.88;1.25;;;;;;;34.09;18.78;100799.84;5072112;28;20089;-61
2022/08/10 11:27:32;;;;;;;2.00;1.20;;;;;;;34.83;18.83;100803.88;5072021;28;20132;-63
2022/08/10 11:30:09;;;;;;;1.63;1.17;;;;;;;34.38;19.29;100790.22;5071343;28;20527;-61
2022/08/10 11:33:05;;;;;;;2.47;1.45;;;;;;;34.96;18.30;100786.34;5072020;28;20041;-61
2022/08/10 11:35:39;;;;;;;2.42;1.27;;;;;;;34.98;18.14;100803.44;5071993;28;20687;-60
2022/08/10 11:38:20;;;;;;;3.15;1.35;;;;;;;34.49;19.55;100778.56;5072106;28;20043;-60
2022/08/10 11:41:08;;;;;;;4.68;1.20;;;;;;;35.08;18.79;100783.75;5071506;28;20032;-61
2022/08/10 11:43:40;;;;;;;2.92;1.20;;;;;;;35.52;17.28;100788.16;5071845;28;20036;-61
2022/08/10 11:46:29;;;;;;;1.45;1.10;;;;;;;35.37;17.81;100782.28;5071670;28;20039;-61
2022/08/10 11:49:24;;;;;;;2.80;1.10;;;;;;;35.11;18.18;100774.00;5070283;28;20111;-61
2022/08/10 11:51:59;;;;;;;1.77;1.00;;;;;;;35.93;17.30;100777.66;5069083;28;20041;-57
2022/08/10 11:54:41;;;;;;;1.48;1.38;;;;;;;36.14;17.01;100781.34;5071562;28;20560;-54
2022/08/10 11:57:07;;;;;;;1.65;1.20;;;;;;;35.48;17.68;100767.81;5071629;28;20460;-58
2022/08/10 12:02:22;;;;;;;1.73;1.10;;;;;;;35.80;17.47;100771.97;5071647;28;20155;-53
2022/08/10 12:04:59;;;;;;;1.77;1.30;;;;;;;36.03;16.91;100764.25;5071749;28;20020;-54
2022/08/10 12:07:26;;;;;;;2.10;1.25;;;;;;;36.25;17.00;100765.13;5071601;28;20443;-57
2022/08/10 12:09:53;;;;;;;3.47;1.20;;;;;;;35.55;16.66;100764.53;5071116;28;20213;-52
2022/08/10 12:12:20;;;;;;;2.85;1.08;;;;;;;35.11;17.85;100760.16;5071331;28;20033;-55
2022/08/10 12:14:55;;;;;;;1.48;1.00;;;;;;;35.41;17.48;100766.63;5065168;28;20043;-53
2022/08/10 12:17:26;;;;;;;2.20;0.90;;;;;;;35.55;17.85;100762.59;5070097;28;20044;-54
2022/08/10 12:20:14;;;;;;;3.13;1.00;;;;;;;36.36;17.08;100755.28;5071113;28;20033;-56
2022/08/10 12:22:54;;;;;;;1.10;1.00;;;;;;;36.42;17.36;100745.66;5071383;28;20029;-55
2022/08/10 12:25:37;;;;;;;2.25;1.02;;;;;;;36.48;16.26;100747.09;5071368;28;20040;-55
2022/08/10 12:28:33;;;;;;;1.40;1.20;;;;;;;35.78;16.65;100749.31;5071477;28;20033;-58
2022/08/10 12:31:00;;;;;;;1.73;1.25;;;;;;;35.85;16.83;100755.16;5070384;28;20067;-54
2022/08/10 12:33:33;;;;;;;2.22;1.17;;;;;;;36.43;16.26;100747.28;5071349;28;20044;-54
2022/08/10 12:36:09;;;;;;;1.13;1.02;;;;;;;36.52;16.66;100748.06;5071341;28;20037;-50
2022/08/10 12:39:00;;;;;;;4.15;1.35;;;;;;;36.61;16.56;100736.91;5071276;28;20064;-49
2022/08/10 12:41:30;;;;;;;1.98;1.20;;;;;;;36.05;16.85;100737.00;5070064;28;20364;-53
2022/08/10 12:44:05;;;;;;;4.25;1.20;;;;;;;36.27;17.22;100730.41;5062981;28;20025;-49
2022/08/10 12:46:46;;;;;;;6.15;1.33;;;;;;;35.18;17.67;100730.03;5053803;28;20502;-51
2022/08/10 12:49:19;;;;;;;2.30;1.65;;;;;;;35.77;17.01;100722.75;5054991;28;20037;-48
2022/08/10 12:52:10;;;;;;;2.42;1.30;;;;;;;36.15;16.69;100719.22;5054816;28;20049;-52
2022/08/10 12:54:38;;;;;;;2.03;1.27;;;;;;;35.71;16.81;100713.00;5054227;28;20056;-52
2022/08/10 12:57:09;;;;;;;1.90;1.35;;;;;;;35.20;17.68;100713.88;5054872;28;20463;-51
2022/08/10 12:59:39;;;;;;;2.85;1.20;;;;;;;34.78;17.66;100708.84;5054665;28;20063;-49
2022/08/10 13:02:07;;;;;;;1.77;1.20;;;;;;;35.32;17.40;100711.28;5054884;28;20036;-50
2022/08/10 13:04:35;;;;;;;1.52;1.00;;;;;;;36.39;17.37;100710.31;5069947;28;20428;-54
2022/08/10 13:07:01;;;;;;;2.00;1.10;;;;;;;35.87;16.75;100711.31;5074618;28;20122;-54
2022/08/10 13:09:29;;;;;;;9.82;1.73;;;;;;;36.45;17.82;100708.13;5074362;28;20439;-53
2022/08/10 13:12:09;;;;;;;1.73;1.05;;;;;;;36.54;16.59;100698.59;5074575;28;20037;-54
2022/08/10 13:14:41;;;;;;;2.83;1.25;;;;;;;35.99;17.50;100690.41;5074625;28;20067;-53
2022/08/10 13:17:09;;;;;;;1.45;1.15;;;;;;;36.12;16.54;100694.91;5074554;28;20444;-54
2022/08/10 13:19:40;;;;;;;1.88;1.13;;;;;;;36.19;17.07;100686.06;5074224;28;20040;-53
2022/08/10 13:22:07;;;;;;;3.03;1.42;;;;;;;36.41;16.78;100672.75;5073906;28;20028;-56
2022/08/10 13:24:38;;;;;;;2.35;1.20;;;;;;;36.15;16.59;100681.22;5074353;28;20024;-51
2022/08/10 13:27:09;;;;;;;2.05;1.42;;;;;;;36.18;16.86;100681.66;5074344;28;20116;-54
2022/08/10 13:29:57;;;;;;;2.85;1.05;;;;;;;36.25;17.39;100673.63;5073909;28;20040;-51
2022/08/10 13:32:26;;;;;;;3.70;1.27;;;;;;;36.32;16.45;100683.06;5074154;28;20083;-52
2022/08/10 13:34:53;;;;;;;3.70;1.30;;;;;;;36.23;16.80;100675.94;5074200;28;20039;-52
2022/08/10 13:37:24;;;;;;;2.30;1.20;;;;;;;35.99;17.29;100668.25;5073975;28;20059;-54
2022/08/10 13:39:53;;;;;;;2.25;1.02;;;;;;;35.48;17.96;100672.84;5073897;28;20090;-53
2022/08/10 13:42:20;;;;;;;2.30;1.27;;;;;;;34.39;18.55;100667.44;5056042;28;20021;-52
2022/08/10 13:44:50;;;;;;;3.33;1.15;;;;;;;34.20;18.23;100660.25;5074021;28;20139;-54
2022/08/10 13:47:17;;;;;;;3.15;1.40;;;;;;;34.19;18.17;100664.16;5074010;28;20080;-50
2022/08/10 13:49:53;;;;;;;1.95;1.10;;;;;;;33.34;18.35;100657.09;5073675;28;20029;-49
2022/08/10 13:52:23;;;;;;;1.57;1.40;;;;;;;33.29;19.46;100658.03;5073802;28;20040;-56
2022/08/10 13:54:51;;;;;;;2.72;1.88;;;;;;;33.25;19.35;100667.22;5073529;28;20789;-52
2022/08/10 13:57:20;;;;;;;3.25;1.50;;;;;;;33.02;19.37;100661.75;5073739;28;20046;-51
2022/08/10 13:59:50;;;;;;;2.75;1.45;;;;;;;32.80;20.30;100653.41;5073332;28;20127;-50
2022/08/10 14:02:25;;;;;;;2.60;1.60;;;;;;;32.38;20.56;100645.28;5073823;28;20036;-53
2022/08/10 14:04:53;;;;;;;3.85;1.60;;;;;;;32.40;20.22;100629.22;5073644;28;20036;-57
2022/08/10 14:07:19;;;;;;;2.10;1.20;;;;;;;32.26;20.21;100653.22;5073548;28;20032;-50
2022/08/10 14:09:46;;;;;;;2.67;0.97;;;;;;;32.01;20.34;100645.47;5073348;28;20047;-52
2022/08/10 14:12:13;;;;;;;1.20;1.10;;;;;;;32.08;20.85;100646.72;5073515;28;20036;-53
2022/08/10 14:14:41;;;;;;;3.20;1.30;;;;;;;32.18;21.23;100639.38;5073653;28;20440;-49
2022/08/10 14:17:08;;;;;;;5.13;1.30;;;;;;;32.08;20.95;100645.88;5073301;28;20048;-55
2022/08/10 14:19:36;;;;;;;;;;;;;;;32.08;20.58;100645.88;5073403;28;20041;-50
2022/08/10 14:22:02;;;;;;;2.15;1.38;;;;;;;31.69;21.21;100638.94;5073200;28;19912;-51
2022/08/10 14:24:30;;;;;;;1.60;1.20;;;;;;;31.85;21.02;100629.28;5073245;28;20401;-50
2022/08/10 14:27:05;;;;;;;2.85;1.42;;;;;;;31.74;20.73;100635.25;5073072;28;20040;-53
2022/08/10 14:29:40;;;;;;;2.45;1.30;;;;;;;31.71;21.00;100630.38;5072918;28;20037;-52
2022/08/10 14:32:07;;;;;;;3.67;1.27;;;;;;;31.52;20.80;100623.00;5072973;28;20029;-53
2022/08/10 14:34:35;;;;;;;2.13;1.23;;;;;;;31.37;20.86;100615.06;5073013;28;20032;-51
2022/08/10 14:37:05;;;;;;;2.42;1.27;;;;;;;31.27;21.22;100617.97;5072880;28;20180;-52
2022/08/10 14:39:57;;;;;;;2.13;1.33;;;;;;;30.98;21.28;100612.69;5072728;28;20436;-48
2022/08/10 14:42:42;;;;;;;2.28;1.35;;;;;;;31.02;21.28;100608.19;5070127;28;20055;-52
2022/08/10 14:45:19;;;;;;;2.78;1.38;;;;;;;31.16;21.42;100611.78;5072822;28;20050;-51
2022/08/10 14:47:46;;;;;;;1.50;1.15;;;;;;;31.02;22.15;100603.50;5072696;28;20051;-48
2022/08/10 14:50:17;;;;;;;3.30;1.30;;;;;;;31.00;22.19;100599.44;5072402;28;20477;-50
2022/08/10 14:52:45;;;;;;;4.05;1.35;;;;;;;30.76;22.10;100607.78;5072495;28;20032;-48
2022/08/10 14:55:12;;;;;;;2.17;1.05;;;;;;;30.60;22.15;100603.63;5072539;28;20056;-48
2022/08/10 14:57:39;;;;;;;2.88;1.45;;;;;;;30.32;22.54;100599.91;5072524;28;20665;-51
2022/08/10 15:00:05;;;;;;;3.42;1.50;;;;;;;30.29;22.18;100600.50;5072165;28;20036;-50
2022/08/10 15:02:35;;;;;;;3.47;1.40;;;;;;;30.25;22.30;100597.53;5072380;28;20028;-52
2022/08/10 15:05:02;;;;;;;3.92;1.35;;;;;;;30.36;22.71;100596.28;5071522;28;20274;-52
2022/08/10 15:07:28;;;;;;;2.00;1.63;;;;;;;30.41;22.43;100587.97;5072049;28;20612;-54
2022/08/10 15:09:56;;;;;;;3.78;1.30;;;;;;;30.56;22.53;100586.09;5071956;28;20032;-59
2022/08/10 15:12:22;;;;;;;;;;;;;;;30.58;22.21;100595.66;5072577;28;20038;-60
2022/08/10 15:14:50;;;;;;;1.60;1.13;;;;;;;30.51;22.11;100592.47;5072297;28;19977;-61
2022/08/10 15:17:27;;;;;;;4.57;1.52;;;;;;;30.49;22.02;100587.28;5072063;28;20036;-60
2022/08/10 15:19:57;;;;;;;3.63;1.45;;;;;;;30.47;22.17;100589.53;5071775;28;20036;-57
2022/08/10 15:22:24;;;;;;;3.65;1.88;;;;;;;30.47;22.04;100586.78;5071996;28;20039;-60
2022/08/10 15:25:03;;;;;;;4.18;1.80;;;;;;;30.50;21.97;100591.66;5071995;28;20354;-60
2022/08/10 15:27:41;;;;;;;2.42;1.40;;;;;;;30.56;22.11;100594.34;5072011;28;20045;-60
2022/08/10 15:30:09;;;;;;;1.77;1.17;;;;;;;30.57;22.11;100591.28;5071721;28;20028;-60
2022/08/10 15:38:32;;;;;;;3.83;1.42;;;;;;;30.60;22.29;100587.16;5071758;28;20041;-62
2022/08/10 15:40:59;;;;;;;2.70;1.15;;;;;;;30.45;22.30;100588.16;5071509;28;20032;-61
2022/08/10 15:43:25;;;;;;;;;;;;;;;30.54;22.21;100581.72;5072240;28;20438;-61
2022/08/10 15:46:08;;;;;;;2.50;1.58;;;;;;;30.46;21.73;100576.91;5071817;28;19917;-61
2022/08/10 15:48:42;;;;;;;1.77;1.30;;;;;;;30.49;22.24;100579.03;5071715;28;20112;-62
2022/08/10 15:51:30;;;;;;;2.58;1.38;;;;;;;30.46;22.73;100579.66;5071414;28;20029;-61
2022/08/10 15:54:05;;;;;;;5.72;1.50;;;;;;;30.52;22.82;100578.47;5071500;28;20041;-61
2022/08/10 15:56:48;;;;;;;1.95;1.10;;;;;;;30.45;22.03;100574.44;5071375;28;20040;-61
2022/08/10 15:59:23;;;;;;;2.92;1.90;;;;;;;30.37;21.87;100562.19;5071358;28;20051;-61
2022/08/10 16:01:54;;;;;;;1.75;1.33;;;;;;;30.37;22.65;100564.94;5071415;28;20444;-62
2022/08/10 16:04:34;;;;;;;2.40;1.15;;;;;;;30.36;22.25;100571.53;5071328;28;20039;-62
2022/08/10 16:07:11;;;;;;;2.95;1.23;;;;;;;30.35;22.23;100561.69;5071257;28;20036;-62
2022/08/10 16:09:44;;;;;;;2.33;1.20;;;;;;;30.25;22.00;100556.31;5071075;28;20072;-61
2022/08/10 16:12:31;;;;;;;2.95;1.38;;;;;;;30.21;22.35;100563.53;5071289;28;20033;-62
2022/08/10 16:15:05;;;;;;;1.75;1.23;;;;;;;30.22;22.00;100567.91;5071221;28;20037;-61
2022/08/10 16:17:35;;;;;;;2.00;1.20;;;;;;;30.15;22.26;100571.03;5071227;28;20389;-60
2022/08/10 16:20:03;;;;;;;3.00;1.25;;;;;;;30.11;22.46;100566.41;5071104;28;20090;-59
2022/08/10 16:22:31;;;;;;;2.22;1.20;;;;;;;30.06;22.42;100559.06;5070971;28;20024;-61
2022/08/10 16:24:58;;;;;;;2.13;1.27;;;;;;;30.07;22.18;100566.16;5071120;28;20032;-62
2022/08/10 16:27:26;;;;;;;;;;;;;;;30.07;22.30;100559.88;5071448;28;20045;-61